sensor_id;sensor_type;location;lat;lon;timestamp;temperature;humidity
34460;DHT22;20704;51.260;22.558;2022-08-03T00:03:21;21.30;99.90
34460;DHT22;20704;51.260;22.558;2022-08-03T00:15:39;21.00;99.90
34460;DHT22;20704;51.260;22.558;2022-08-03T00:30:17;21.40;99.90
34460;DHT22;20704;51.260;22.558;2022-08-03T00:40:03;20.80;99.90
34460;DHT22;20704;51.260;22.558;2022-08-03T01:07:20;20.50;99.90
34460;DHT22;20704;51.260;22.558;2022-08-03T01:09:59;19.80;99.90
34460;DHT22;20704;51.260;22.558;2022-08-03T01:12:42;20.40;99.90
34460;DHT22;20704;51.260;22.558;2022-08-03T01:15:37;20.00;99.90
34460;DHT22;20704;51.260;22.558;2022-08-03T01:18:33;19.90;99.90
34460;DHT22;20704;51.260;22.558;2022-08-03T01:21:05;19.80;99.90
34460;DHT22;20704;51.260;22.558;2022-08-03T01:26:21;19.80;99.90
34460;DHT22;20704;51.260;22.558;2022-08-03T01:31:42;19.90;99.90
34460;DHT22;20704;51.260;22.558;2022-08-03T01:34:11;20.70;99.90
34460;DHT22;20704;51.260;22.558;2022-08-03T01:36:39;20.00;99.90
34460;DHT22;20704;51.260;22.558;2022-08-03T01:41:43;19.90;99.90
34460;DHT22;20704;51.260;22.558;2022-08-03T01:44:12;19.90;99.90
34460;DHT22;20704;51.260;22.558;2022-08-03T01:46:40;19.90;99.90
34460;DHT22;20704;51.260;22.558;2022-08-03T01:49:08;19.90;99.90
34460;DHT22;20704;51.260;22.558;2022-08-03T01:51:41;19.90;99.90
34460;DHT22;20704;51.260;22.558;2022-08-03T01:54:12;19.80;99.90
34460;DHT22;20704;51.260;22.558;2022-08-03T01:56:40;19.90;99.90
34460;DHT22;20704;51.260;22.558;2022-08-03T01:59:09;19.90;99.90
34460;DHT22;20704;51.260;22.558;2022-08-03T02:04:04;19.80;99.90
34460;DHT22;20704;51.260;22.558;2022-08-03T02:06:32;19.70;99.90
34460;DHT22;20704;51.260;22.558;2022-08-03T02:09:00;19.70;99.90
34460;DHT22;20704;51.260;22.558;2022-08-03T02:11:29;19.60;99.90
34460;DHT22;20704;51.260;22.558;2022-08-03T02:13:57;19.60;99.90
34460;DHT22;20704;51.260;22.558;2022-08-03T02:16:26;19.50;99.90
34460;DHT22;20704;51.260;22.558;2022-08-03T02:18:54;19.70;99.90
34460;DHT22;20704;51.260;22.558;2022-08-03T02:23:49;19.60;99.90
34460;DHT22;20704;51.260;22.558;2022-08-03T02:26:16;19.70;99.90
34460;DHT22;20704;51.260;22.558;2022-08-03T02:31:33;19.70;99.90
34460;DHT22;20704;51.260;22.558;2022-08-03T02:34:03;19.60;99.90
34460;DHT22;20704;51.260;22.558;2022-08-03T02:36:35;19.60;99.90
34460;DHT22;20704;51.260;22.558;2022-08-03T02:41:34;19.60;99.90
34460;DHT22;20704;51.260;22.558;2022-08-03T02:44:06;19.60;99.90
34460;DHT22;20704;51.260;22.558;2022-08-03T02:46:36;19.70;99.90
34460;DHT22;20704;51.260;22.558;2022-08-03T02:49:03;19.70;99.90
34460;DHT22;20704;51.260;22.558;2022-08-03T02:51:32;19.70;99.90
34460;DHT22;20704;51.260;22.558;2022-08-03T02:54:01;19.70;99.90
34460;DHT22;20704;51.260;22.558;2022-08-03T02:58:55;19.50;99.90
34460;DHT22;20704;51.260;22.558;2022-08-03T03:01:24;19.60;99.90
34460;DHT22;20704;51.260;22.558;2022-08-03T03:03:52;19.70;99.90
34460;DHT22;20704;51.260;22.558;2022-08-03T03:08:46;19.80;99.90
34460;DHT22;20704;51.260;22.558;2022-08-03T03:11:14;19.90;99.90
34460;DHT22;20704;51.260;22.558;2022-08-03T03:13:42;19.80;99.90
34460;DHT22;20704;51.260;22.558;2022-08-03T03:16:11;19.80;99.90
34460;DHT22;20704;51.260;22.558;2022-08-03T03:18:38;19.60;99.90
34460;DHT22;20704;51.260;22.558;2022-08-03T03:21:07;20.00;99.90
34460;DHT22;20704;51.260;22.558;2022-08-03T03:23:36;19.80;99.90
34460;DHT22;20704;51.260;22.558;2022-08-03T03:26:03;20.00;99.90
34460;DHT22;20704;51.260;22.558;2022-08-03T03:28:30;19.90;99.90
34460;DHT22;20704;51.260;22.558;2022-08-03T03:43:11;20.00;99.90
34460;DHT22;20704;51.260;22.558;2022-08-03T03:45:40;20.00;99.90
34460;DHT22;20704;51.260;22.558;2022-08-03T03:50:34;20.00;99.90
34460;DHT22;20704;51.260;22.558;2022-08-03T03:53:01;20.00;99.90
34460;DHT22;20704;51.260;22.558;2022-08-03T04:13:43;20.60;99.90
34460;DHT22;20704;51.260;22.558;2022-08-03T04:16:11;20.90;99.90
34460;DHT22;20704;51.260;22.558;2022-08-03T04:18:40;21.30;99.90
34460;DHT22;20704;51.260;22.558;2022-08-03T04:21:10;21.60;99.90
34460;DHT22;20704;51.260;22.558;2022-08-03T04:23:40;21.60;99.90
34460;DHT22;20704;51.260;22.558;2022-08-03T04:26:10;21.80;99.90
34460;DHT22;20704;51.260;22.558;2022-08-03T04:28:43;22.10;99.90
34460;DHT22;20704;51.260;22.558;2022-08-03T04:31:11;22.30;99.90
34460;DHT22;20704;51.260;22.558;2022-08-03T04:36:08;22.50;99.90
34460;DHT22;20704;51.260;22.558;2022-08-03T04:38:41;22.60;99.90
34460;DHT22;20704;51.260;22.558;2022-08-03T04:41:09;22.90;99.90
34460;DHT22;20704;51.260;22.558;2022-08-03T04:43:37;22.80;99.90
34460;DHT22;20704;51.260;22.558;2022-08-03T04:46:06;22.90;99.90
34460;DHT22;20704;51.260;22.558;2022-08-03T04:48:33;22.90;99.90
34460;DHT22;20704;51.260;22.558;2022-08-03T04:51:00;22.80;99.90
34460;DHT22;20704;51.260;22.558;2022-08-03T04:53:29;22.20;99.90
34460;DHT22;20704;51.260;22.558;2022-08-03T04:56:03;22.10;99.90
34460;DHT22;20704;51.260;22.558;2022-08-03T05:25:26;21.60;99.90
34460;DHT22;20704;51.260;22.558;2022-08-03T05:59:37;25.80;99.90
34460;DHT22;20704;51.260;22.558;2022-08-03T06:31:25;29.70;97.40
34460;DHT22;20704;51.260;22.558;2022-08-03T06:58:18;31.10;92.60
34460;DHT22;20704;51.260;22.558;2022-08-03T07:05:37;29.50;93.70
34460;DHT22;20704;51.260;22.558;2022-08-03T07:08:03;30.30;94.00
34460;DHT22;20704;51.260;22.558;2022-08-03T07:22:43;29.00;91.50
34460;DHT22;20704;51.260;22.558;2022-08-03T07:49:40;28.30;96.00
34460;DHT22;20704;51.260;22.558;2022-08-03T08:07:06;31.70;90.50
34460;DHT22;20704;51.260;22.558;2022-08-03T08:09:33;32.00;86.50
34460;DHT22;20704;51.260;22.558;2022-08-03T08:12:00;32.40;86.40
34460;DHT22;20704;51.260;22.558;2022-08-03T08:16:53;32.50;85.00
34460;DHT22;20704;51.260;22.558;2022-08-03T08:21:46;28.60;91.20
34460;DHT22;20704;51.260;22.558;2022-08-03T08:36:32;29.80;86.90
34460;DHT22;20704;51.260;22.558;2022-08-03T08:43:53;30.20;83.60
34460;DHT22;20704;51.260;22.558;2022-08-03T08:48:47;28.10;84.90
34460;DHT22;20704;51.260;22.558;2022-08-03T08:53:43;28.50;87.40
34460;DHT22;20704;51.260;22.558;2022-08-03T08:56:13;28.70;87.00
34460;DHT22;20704;51.260;22.558;2022-08-03T08:58:51;29.10;87.10
34460;DHT22;20704;51.260;22.558;2022-08-03T09:01:18;29.50;85.20
34460;DHT22;20704;51.260;22.558;2022-08-03T09:03:45;29.70;85.10
34460;DHT22;20704;51.260;22.558;2022-08-03T09:13:33;28.90;85.40
34460;DHT22;20704;51.260;22.558;2022-08-03T09:16:14;29.50;85.50
34460;DHT22;20704;51.260;22.558;2022-08-03T09:18:43;29.40;84.90
34460;DHT22;20704;51.260;22.558;2022-08-03T09:23:47;30.60;85.10
34460;DHT22;20704;51.260;22.558;2022-08-03T09:26:29;30.50;91.40
34460;DHT22;20704;51.260;22.558;2022-08-03T09:29:06;29.40;91.00
34460;DHT22;20704;51.260;22.558;2022-08-03T09:31:37;28.40;85.30
34460;DHT22;20704;51.260;22.558;2022-08-03T09:34:09;27.80;87.30
34460;DHT22;20704;51.260;22.558;2022-08-03T09:36:49;27.80;92.60
34460;DHT22;20704;51.260;22.558;2022-08-03T09:39:16;28.10;87.90
34460;DHT22;20704;51.260;22.558;2022-08-03T09:42:05;26.90;89.10
34460;DHT22;20704;51.260;22.558;2022-08-03T09:44:38;27.80;93.00
34460;DHT22;20704;51.260;22.558;2022-08-03T09:49:36;28.70;87.10
34460;DHT22;20704;51.260;22.558;2022-08-03T09:52:15;29.20;88.40
34460;DHT22;20704;51.260;22.558;2022-08-03T09:54:42;29.40;86.10
34460;DHT22;20704;51.260;22.558;2022-08-03T09:57:19;27.90;85.60
34460;DHT22;20704;51.260;22.558;2022-08-03T10:02:26;26.90;88.50
34460;DHT22;20704;51.260;22.558;2022-08-03T10:04:53;26.90;89.10
34460;DHT22;20704;51.260;22.558;2022-08-03T10:07:21;27.90;87.90
34460;DHT22;20704;51.260;22.558;2022-08-03T10:09:58;27.50;87.80
34460;DHT22;20704;51.260;22.558;2022-08-03T10:12:25;27.50;92.00
34460;DHT22;20704;51.260;22.558;2022-08-03T10:17:19;28.00;91.60
34460;DHT22;20704;51.260;22.558;2022-08-03T10:19:46;27.60;92.30
34460;DHT22;20704;51.260;22.558;2022-08-03T10:22:15;27.90;91.60
34460;DHT22;20704;51.260;22.558;2022-08-03T10:27:22;28.60;88.20
34460;DHT22;20704;51.260;22.558;2022-08-03T10:29:52;27.50;93.50
34460;DHT22;20704;51.260;22.558;2022-08-03T10:32:30;27.10;91.80
34460;DHT22;20704;51.260;22.558;2022-08-03T10:35:05;27.60;92.60
34460;DHT22;20704;51.260;22.558;2022-08-03T10:37:36;27.50;92.00
34460;DHT22;20704;51.260;22.558;2022-08-03T10:40:07;28.10;92.30
34460;DHT22;20704;51.260;22.558;2022-08-03T10:42:35;27.90;92.10
34460;DHT22;20704;51.260;22.558;2022-08-03T10:45:14;27.80;92.00
34460;DHT22;20704;51.260;22.558;2022-08-03T10:47:44;27.70;89.20
34460;DHT22;20704;51.260;22.558;2022-08-03T10:53:03;27.60;89.90
34460;DHT22;20704;51.260;22.558;2022-08-03T10:55:44;27.70;92.70
34460;DHT22;20704;51.260;22.558;2022-08-03T11:01:10;28.10;88.70
34460;DHT22;20704;51.260;22.558;2022-08-03T11:06:26;28.30;88.90
34460;DHT22;20704;51.260;22.558;2022-08-03T11:09:14;28.60;87.60
34460;DHT22;20704;51.260;22.558;2022-08-03T11:11:42;28.60;88.30
34460;DHT22;20704;51.260;22.558;2022-08-03T11:14:14;28.50;88.20
34460;DHT22;20704;51.260;22.558;2022-08-03T11:19:14;28.80;87.00
34460;DHT22;20704;51.260;22.558;2022-08-03T11:35:16;29.30;85.60
34460;DHT22;20704;51.260;22.558;2022-08-03T11:40:44;29.70;85.60
34460;DHT22;20704;51.260;22.558;2022-08-03T11:46:09;29.90;86.00
34460;DHT22;20704;51.260;22.558;2022-08-03T11:48:48;33.00;92.30
34460;DHT22;20704;51.260;22.558;2022-08-03T11:51:26;29.70;86.70
34460;DHT22;20704;51.260;22.558;2022-08-03T11:54:00;29.00;85.00
34460;DHT22;20704;51.260;22.558;2022-08-03T11:56:28;28.30;86.70
34460;DHT22;20704;51.260;22.558;2022-08-03T11:58:56;28.30;86.40
34460;DHT22;20704;51.260;22.558;2022-08-03T12:06:17;27.40;87.70
34460;DHT22;20704;51.260;22.558;2022-08-03T12:08:44;27.30;92.70
34460;DHT22;20704;51.260;22.558;2022-08-03T12:11:14;27.00;88.70
34460;DHT22;20704;51.260;22.558;2022-08-03T12:13:47;27.50;92.90
34460;DHT22;20704;51.260;22.558;2022-08-03T12:16:22;27.10;89.40
34460;DHT22;20704;51.260;22.558;2022-08-03T12:19:03;27.30;90.10
34460;DHT22;20704;51.260;22.558;2022-08-03T12:21:30;27.40;92.80
34460;DHT22;20704;51.260;22.558;2022-08-03T12:23:58;26.70;89.20
34460;DHT22;20704;51.260;22.558;2022-08-03T12:26:25;26.10;92.80
34460;DHT22;20704;51.260;22.558;2022-08-03T12:39:02;26.00;92.90
34460;DHT22;20704;51.260;22.558;2022-08-03T12:41:34;26.60;93.20
34460;DHT22;20704;51.260;22.558;2022-08-03T12:44:04;27.10;89.50
34460;DHT22;20704;51.260;22.558;2022-08-03T12:46:36;27.90;92.70
34460;DHT22;20704;51.260;22.558;2022-08-03T12:49:12;27.60;92.30
34460;DHT22;20704;51.260;22.558;2022-08-03T12:54:16;28.40;92.30
34460;DHT22;20704;51.260;22.558;2022-08-03T12:57:06;28.50;91.30
34460;DHT22;20704;51.260;22.558;2022-08-03T12:59:37;28.60;91.40
34460;DHT22;20704;51.260;22.558;2022-08-03T13:02:15;28.80;91.40
34460;DHT22;20704;51.260;22.558;2022-08-03T13:07:10;28.40;90.90
34460;DHT22;20704;51.260;22.558;2022-08-03T13:12:20;27.40;88.30
34460;DHT22;20704;51.260;22.558;2022-08-03T13:14:57;27.50;88.20
34460;DHT22;20704;51.260;22.558;2022-08-03T13:22:20;27.60;91.80
34460;DHT22;20704;51.260;22.558;2022-08-03T13:24:48;28.30;92.40
34460;DHT22;20704;51.260;22.558;2022-08-03T14:06:22;26.70;90.30
34460;DHT22;20704;51.260;22.558;2022-08-03T14:11:16;27.20;88.70
34460;DHT22;20704;51.260;22.558;2022-08-03T14:21:04;27.00;87.90
34460;DHT22;20704;51.260;22.558;2022-08-03T14:30:51;26.90;88.10
34460;DHT22;20704;51.260;22.558;2022-08-03T14:45:49;27.30;87.90
34460;DHT22;20704;51.260;22.558;2022-08-03T14:48:20;27.50;88.40
34460;DHT22;20704;51.260;22.558;2022-08-03T15:00:33;27.70;87.70
34460;DHT22;20704;51.260;22.558;2022-08-03T15:25:02;27.80;86.80
34460;DHT22;20704;51.260;22.558;2022-08-03T16:43:13;26.10;90.30
34460;DHT22;20704;51.260;22.558;2022-08-03T16:50:33;25.60;90.80
34460;DHT22;20704;51.260;22.558;2022-08-03T17:02:50;25.30;92.00
34460;DHT22;20704;51.260;22.558;2022-08-03T17:05:17;25.00;92.30
34460;DHT22;20704;51.260;22.558;2022-08-03T17:07:45;25.10;92.40
34460;DHT22;20704;51.260;22.558;2022-08-03T17:15:06;24.80;97.00
34460;DHT22;20704;51.260;22.558;2022-08-03T17:17:33;24.80;93.00
34460;DHT22;20704;51.260;22.558;2022-08-03T17:20:00;24.90;92.90
34460;DHT22;20704;51.260;22.558;2022-08-03T17:22:35;25.50;97.60
34460;DHT22;20704;51.260;22.558;2022-08-03T17:25:09;24.70;93.40
34460;DHT22;20704;51.260;22.558;2022-08-03T17:27:36;24.70;93.30
34460;DHT22;20704;51.260;22.558;2022-08-03T17:30:09;24.50;93.60
34460;DHT22;20704;51.260;22.558;2022-08-03T17:32:38;24.50;93.70
34460;DHT22;20704;51.260;22.558;2022-08-03T17:35:05;24.60;97.60
34460;DHT22;20704;51.260;22.558;2022-08-03T17:39:59;24.50;94.10
34460;DHT22;20704;51.260;22.558;2022-08-03T17:42:27;24.40;94.10
34460;DHT22;20704;51.260;22.558;2022-08-03T17:55:08;24.30;98.00
34460;DHT22;20704;51.260;22.558;2022-08-03T17:57:48;24.00;99.10
34460;DHT22;20704;51.260;22.558;2022-08-03T18:00:17;24.00;95.50
34460;DHT22;20704;51.260;22.558;2022-08-03T18:03:36;24.10;97.60
34460;DHT22;20704;51.260;22.558;2022-08-03T18:06:06;23.90;99.50
34460;DHT22;20704;51.260;22.558;2022-08-03T18:08:34;23.80;95.80
34460;DHT22;20704;51.260;22.558;2022-08-03T18:11:05;23.90;95.90
34460;DHT22;20704;51.260;22.558;2022-08-03T18:13:39;23.70;96.00
34460;DHT22;20704;51.260;22.558;2022-08-03T18:16:06;23.50;99.90
34460;DHT22;20704;51.260;22.558;2022-08-03T18:18:36;23.70;96.40
34460;DHT22;20704;51.260;22.558;2022-08-03T18:21:04;23.50;96.20
34460;DHT22;20704;51.260;22.558;2022-08-03T18:28:26;23.50;96.60
34460;DHT22;20704;51.260;22.558;2022-08-03T18:35:48;23.20;97.20
34460;DHT22;20704;51.260;22.558;2022-08-03T18:38:14;23.00;97.50
34460;DHT22;20704;51.260;22.558;2022-08-03T18:40:42;23.10;97.60
34460;DHT22;20704;51.260;22.558;2022-08-03T18:43:08;23.00;97.90
34460;DHT22;20704;51.260;22.558;2022-08-03T18:45:37;23.00;97.60
34460;DHT22;20704;51.260;22.558;2022-08-03T18:48:23;23.10;99.90
34460;DHT22;20704;51.260;22.558;2022-08-03T18:51:05;23.10;97.90
34460;DHT22;20704;51.260;22.558;2022-08-03T18:59:03;23.20;99.90
34460;DHT22;20704;51.260;22.558;2022-08-03T19:04:10;22.80;99.90
34460;DHT22;20704;51.260;22.558;2022-08-03T19:06:43;23.00;98.50
34460;DHT22;20704;51.260;22.558;2022-08-03T19:09:23;23.10;99.90
34460;DHT22;20704;51.260;22.558;2022-08-03T19:11:55;22.80;98.60
34460;DHT22;20704;51.260;22.558;2022-08-03T19:14:22;22.90;98.80
34460;DHT22;20704;51.260;22.558;2022-08-03T19:16:55;22.80;98.60
34460;DHT22;20704;51.260;22.558;2022-08-03T19:19:22;22.70;99.20
34460;DHT22;20704;51.260;22.558;2022-08-03T19:21:49;22.70;99.20
34460;DHT22;20704;51.260;22.558;2022-08-03T19:24:19;22.60;99.50
34460;DHT22;20704;51.260;22.558;2022-08-03T19:29:14;22.70;99.60
34460;DHT22;20704;51.260;22.558;2022-08-03T19:31:43;22.70;99.80
34460;DHT22;20704;51.260;22.558;2022-08-03T19:34:11;22.70;99.90
34460;DHT22;20704;51.260;22.558;2022-08-03T19:36:38;22.70;99.90
34460;DHT22;20704;51.260;22.558;2022-08-03T19:41:36;22.60;99.90
34460;DHT22;20704;51.260;22.558;2022-08-03T19:44:05;22.50;99.90
34460;DHT22;20704;51.260;22.558;2022-08-03T19:46:36;22.50;99.90
34460;DHT22;20704;51.260;22.558;2022-08-03T19:49:11;22.40;99.90
34460;DHT22;20704;51.260;22.558;2022-08-03T19:51:38;22.30;99.90
34460;DHT22;20704;51.260;22.558;2022-08-03T19:54:09;22.10;99.90
34460;DHT22;20704;51.260;22.558;2022-08-03T19:56:46;22.10;99.90
34460;DHT22;20704;51.260;22.558;2022-08-03T19:59:13;22.00;99.90
34460;DHT22;20704;51.260;22.558;2022-08-03T20:06:36;22.00;99.90
34460;DHT22;20704;51.260;22.558;2022-08-03T20:09:02;22.00;99.90
34460;DHT22;20704;51.260;22.558;2022-08-03T20:11:29;22.00;99.90
34460;DHT22;20704;51.260;22.558;2022-08-03T20:13:57;22.00;99.90
34460;DHT22;20704;51.260;22.558;2022-08-03T20:23:50;21.70;99.90
34460;DHT22;20704;51.260;22.558;2022-08-03T20:28:49;21.80;99.90
34460;DHT22;20704;51.260;22.558;2022-08-03T20:41:03;21.50;99.90
34460;DHT22;20704;51.260;22.558;2022-08-03T20:53:16;21.30;99.90
34460;DHT22;20704;51.260;22.558;2022-08-03T21:05:30;21.30;99.90
34460;DHT22;20704;51.260;22.558;2022-08-03T21:08:01;21.40;99.90
34460;DHT22;20704;51.260;22.558;2022-08-03T21:10:29;21.40;99.90
34460;DHT22;20704;51.260;22.558;2022-08-03T21:15:25;21.30;99.90
34460;DHT22;20704;51.260;22.558;2022-08-03T21:17:55;21.20;99.90
34460;DHT22;20704;51.260;22.558;2022-08-03T21:20:23;21.20;99.90
34460;DHT22;20704;51.260;22.558;2022-08-03T21:22:54;21.50;99.90
34460;DHT22;20704;51.260;22.558;2022-08-03T21:25:30;21.10;99.90
34460;DHT22;20704;51.260;22.558;2022-08-03T21:27:58;21.10;99.90
34460;DHT22;20704;51.260;22.558;2022-08-03T21:30:25;21.10;99.90
34460;DHT22;20704;51.260;22.558;2022-08-03T21:32:53;21.00;99.90
34460;DHT22;20704;51.260;22.558;2022-08-03T21:35:20;21.00;99.90
34460;DHT22;20704;51.260;22.558;2022-08-03T21:47:53;21.00;99.90
34460;DHT22;20704;51.260;22.558;2022-08-03T21:50:21;21.00;99.90
34460;DHT22;20704;51.260;22.558;2022-08-03T21:52:48;20.90;99.90
34460;DHT22;20704;51.260;22.558;2022-08-03T21:55:15;20.90;99.90
34460;DHT22;20704;51.260;22.558;2022-08-03T21:57:43;20.90;99.90
34460;DHT22;20704;51.260;22.558;2022-08-03T22:02:50;20.60;99.90
34460;DHT22;20704;51.260;22.558;2022-08-03T22:05:17;20.80;99.90
34460;DHT22;20704;51.260;22.558;2022-08-03T22:10:11;20.80;99.90
34460;DHT22;20704;51.260;22.558;2022-08-03T22:15:10;20.70;99.90
34460;DHT22;20704;51.260;22.558;2022-08-03T22:17:39;20.80;99.90
34460;DHT22;20704;51.260;22.558;2022-08-03T22:20:06;20.70;99.90
34460;DHT22;20704;51.260;22.558;2022-08-03T22:22:34;20.70;99.90
34460;DHT22;20704;51.260;22.558;2022-08-03T22:25:04;20.70;99.90
34460;DHT22;20704;51.260;22.558;2022-08-03T22:27:33;20.70;99.90
34460;DHT22;20704;51.260;22.558;2022-08-03T22:30:05;20.70;99.90
34460;DHT22;20704;51.260;22.558;2022-08-03T22:37:27;20.60;99.90
34460;DHT22;20704;51.260;22.558;2022-08-03T22:39:55;20.60;99.90
34460;DHT22;20704;51.260;22.558;2022-08-03T22:42:22;20.50;99.90
34460;DHT22;20704;51.260;22.558;2022-08-03T22:44:51;20.50;99.90
34460;DHT22;20704;51.260;22.558;2022-08-03T22:52:12;20.60;99.90
34460;DHT22;20704;51.260;22.558;2022-08-03T22:54:39;20.50;99.90
34460;DHT22;20704;51.260;22.558;2022-08-03T22:59:33;20.50;99.90
34460;DHT22;20704;51.260;22.558;2022-08-03T23:02:03;20.50;99.90
34460;DHT22;20704;51.260;22.558;2022-08-03T23:04:31;20.60;99.90
34460;DHT22;20704;51.260;22.558;2022-08-03T23:07:01;20.50;99.90
34460;DHT22;20704;51.260;22.558;2022-08-03T23:09:27;20.50;99.90
34460;DHT22;20704;51.260;22.558;2022-08-03T23:11:56;20.30;99.90
34460;DHT22;20704;51.260;22.558;2022-08-03T23:14:28;20.00;99.90
34460;DHT22;20704;51.260;22.558;2022-08-03T23:16:55;20.20;99.90
34460;DHT22;20704;51.260;22.558;2022-08-03T23:19:22;20.10;99.90
34460;DHT22;20704;51.260;22.558;2022-08-03T23:21:56;20.10;99.90
34460;DHT22;20704;51.260;22.558;2022-08-03T23:26:49;19.90;99.90
34460;DHT22;20704;51.260;22.558;2022-08-03T23:29:16;19.90;99.90
34460;DHT22;20704;51.260;22.558;2022-08-03T23:31:45;20.20;99.90
34460;DHT22;20704;51.260;22.558;2022-08-03T23:34:12;19.70;99.90
34460;DHT22;20704;51.260;22.558;2022-08-03T23:36:59;21.90;99.90
34460;DHT22;20704;51.260;22.558;2022-08-03T23:39:28;19.60;99.90
34460;DHT22;20704;51.260;22.558;2022-08-03T23:41:56;19.90;99.90
34460;DHT22;20704;51.260;22.558;2022-08-03T23:44:24;19.70;99.90
34460;DHT22;20704;51.260;22.558;2022-08-03T23:46:51;19.60;99.90
34460;DHT22;20704;51.260;22.558;2022-08-03T23:49:17;19.90;99.90
34460;DHT22;20704;51.260;22.558;2022-08-03T23:52:07;19.00;99.90
34460;DHT22;20704;51.260;22.558;2022-08-03T23:57:23;19.90;99.90
